Time;durP1;ratioP1;P1;durP2;ratioP2;P2;SDS_P1;SDS_P2;PMS_P1;PMS_P2;Temp;Humidity;BMP_temperature;BMP_pressure;BME280_temperature;BME280_humidity;BME280_pressure;Samples;Min_cycle;Max_cycle;Signal;HPM_P1;HPM_P2
2020/12/26 00:01:29;;;;;;;52.53;23.65;;;-1.10;99.90;;;;;;5124688;27;20043;-73
2020/12/26 00:03:56;;;;;;;55.03;23.92;;;-1.10;99.90;;;;;;5130745;27;20043;-74
2020/12/26 00:06:23;;;;;;;62.15;25.17;;;-1.10;99.90;;;;;;5131458;27;20078;-73
2020/12/26 00:08:50;;;;;;;58.63;24.05;;;-1.10;99.90;;;;;;5130456;27;20043;-74
2020/12/26 00:11:19;;;;;;;55.08;25.98;;;-1.00;99.90;;;;;;5123479;27;20040;-74
2020/12/26 00:13:46;;;;;;;57.20;27.15;;;-1.10;99.90;;;;;;5106721;27;20079;-73
2020/12/26 00:16:12;;;;;;;56.38;25.73;;;-1.10;99.90;;;;;;5117174;27;20515;-73
2020/12/26 00:18:43;;;;;;;56.05;25.48;;;-1.10;99.90;;;;;;5126015;27;20363;-74
2020/12/26 00:21:15;;;;;;;49.75;24.40;;;-1.10;99.90;;;;;;5112302;27;20047;-73
2020/12/26 00:23:41;;;;;;;45.40;19.90;;;-1.10;99.90;;;;;;5116934;27;20055;-74
2020/12/26 00:26:08;;;;;;;53.17;25.15;;;-1.10;99.90;;;;;;5127345;27;20139;-73
2020/12/26 00:28:35;;;;;;;54.10;25.13;;;-1.10;99.90;;;;;;5114738;27;20054;-74
2020/12/26 00:31:03;;;;;;;54.45;24.92;;;-1.10;99.90;;;;;;5109491;27;20081;-73
2020/12/26 00:33:35;;;;;;;65.32;25.13;;;-1.20;99.90;;;;;;5130750;27;20122;-74
2020/12/26 00:36:02;;;;;;;48.80;22.45;;;-1.30;99.90;;;;;;5112050;27;20047;-74
2020/12/26 00:38:29;;;;;;;52.72;23.60;;;-1.30;99.90;;;;;;5130901;27;20146;-74
2020/12/26 00:40:55;;;;;;;44.50;23.10;;;-1.40;99.90;;;;;;5106465;27;20139;-74
2020/12/26 00:43:21;;;;;;;55.13;24.67;;;-1.40;99.90;;;;;;5130417;27;20043;-73
2020/12/26 00:45:48;;;;;;;52.80;24.13;;;-1.40;99.90;;;;;;5129728;27;20051;-73
2020/12/26 00:48:15;;;;;;;55.15;24.08;;;-1.40;99.90;;;;;;5129891;27;20047;-73
2020/12/26 00:50:41;;;;;;;54.65;25.15;;;-1.50;99.90;;;;;;5106171;27;20499;-75
2020/12/26 00:53:07;;;;;;;56.08;25.58;;;-1.50;99.90;;;;;;5112079;27;20080;-73
2020/12/26 00:55:34;;;;;;;54.40;25.77;;;-1.60;99.90;;;;;;5111181;27;20490;-75
2020/12/26 00:58:00;;;;;;;62.20;26.17;;;-1.50;99.90;;;;;;5111325;27;20543;-74
2020/12/26 01:00:26;;;;;;;60.95;26.23;;;-1.50;99.90;;;;;;5119956;27;20043;-74
2020/12/26 01:02:53;;;;;;;60.80;26.33;;;-1.50;99.90;;;;;;5130118;27;20083;-73
2020/12/26 01:05:19;;;;;;;60.90;24.52;;;-1.40;99.90;;;;;;5129044;27;20082;-74
2020/12/26 01:07:45;;;;;;;54.42;24.33;;;-1.50;99.90;;;;;;5129962;27;20071;-73
2020/12/26 01:10:12;;;;;;;56.80;25.25;;;-1.50;99.90;;;;;;5127531;27;20082;-74
2020/12/26 01:12:40;;;;;;;66.85;26.40;;;-1.50;99.90;;;;;;5129519;27;20461;-74
2020/12/26 01:15:06;;;;;;;61.33;26.25;;;-1.50;99.90;;;;;;5130457;27;20144;-73
2020/12/26 01:17:33;;;;;;;62.00;26.45;;;-1.50;99.90;;;;;;5129675;27;20485;-74
2020/12/26 01:19:59;;;;;;;62.67;26.75;;;-1.50;99.90;;;;;;5118750;27;20132;-74
2020/12/26 01:22:26;;;;;;;64.55;27.33;;;-1.50;99.90;;;;;;5127807;27;20124;-74
2020/12/26 01:24:52;;;;;;;66.70;27.25;;;-1.50;99.90;;;;;;5129309;27;20075;-73
2020/12/26 01:27:19;;;;;;;64.60;26.33;;;-1.60;99.90;;;;;;5129149;27;20468;-73
2020/12/26 01:29:47;;;;;;;59.35;27.05;;;-1.60;99.90;;;;;;5118257;27;20050;-73
2020/12/26 01:32:13;;;;;;;71.25;26.52;;;-1.60;99.90;;;;;;5129211;27;20047;-74
2020/12/26 01:34:40;;;;;;;70.10;27.25;;;-1.70;99.90;;;;;;5129580;27;20087;-74
2020/12/26 01:37:07;;;;;;;70.35;26.60;;;-1.60;99.90;;;;;;5130204;27;20043;-74
2020/12/26 01:39:34;;;;;;;70.75;27.48;;;-1.60;99.90;;;;;;5104196;28;20051;-74
2020/12/26 01:42:00;;;;;;;66.43;26.63;;;-1.60;99.90;;;;;;5128533;27;20133;-73
2020/12/26 01:44:27;;;;;;;66.35;26.92;;;-1.60;99.90;;;;;;5129557;28;20198;-74
2020/12/26 01:46:54;;;;;;;75.03;28.05;;;-1.60;99.90;;;;;;5128973;27;20067;-73
2020/12/26 01:49:22;;;;;;;62.90;25.60;;;-1.50;99.90;;;;;;5123742;28;20212;-74
2020/12/26 01:51:50;;;;;;;70.10;25.45;;;-1.50;99.90;;;;;;5127234;27;20039;-73
2020/12/26 01:54:16;;;;;;;61.67;23.52;;;-1.50;99.90;;;;;;5120561;28;20656;-73
2020/12/26 01:56:43;;;;;;;68.50;27.05;;;-1.50;99.90;;;;;;5116126;28;20453;-73
2020/12/26 01:59:09;;;;;;;73.82;27.88;;;-1.50;99.90;;;;;;5099141;28;20154;-73
2020/12/26 02:01:41;;;;;;;71.32;29.52;;;-1.50;99.90;;;;;;5129203;28;20043;-73
2020/12/26 02:04:10;;;;;;;78.13;28.45;;;-1.40;99.90;;;;;;5129472;27;20143;-74
2020/12/26 02:06:43;;;;;;;75.03;31.40;;;-1.40;99.90;;;;;;5129664;28;20047;-74
2020/12/26 02:09:11;;;;;;;75.57;31.17;;;-1.30;99.90;;;;;;5124467;28;20048;-73
2020/12/26 02:11:39;;;;;;;74.93;29.85;;;-1.30;99.90;;;;;;5118474;28;20143;-73
2020/12/26 02:14:05;;;;;;;71.05;29.85;;;-1.30;99.90;;;;;;5110759;28;20455;-74
2020/12/26 02:16:49;;;;;;;76.32;30.50;;;-1.30;99.90;;;;;;5128965;27;20051;-73
2020/12/26 02:19:17;;;;;;;64.57;29.85;;;-1.40;99.90;;;;;;5110724;28;20518;-74
2020/12/26 02:21:43;;;;;;;70.53;30.60;;;-1.30;99.90;;;;;;5123027;28;20074;-74
2020/12/26 02:24:10;;;;;;;71.45;30.10;;;-1.30;99.90;;;;;;5128838;27;20154;-73
2020/12/26 02:26:38;;;;;;;69.40;29.65;;;-1.30;99.90;;;;;;5122659;28;20048;-73
2020/12/26 02:29:05;;;;;;;68.82;29.20;;;-1.40;99.90;;;;;;5118452;28;20119;-73
2020/12/26 02:31:34;;;;;;;67.00;27.50;;;-1.50;99.90;;;;;;5127128;28;20139;-74
2020/12/26 02:34:01;;;;;;;72.13;26.98;;;-1.70;99.90;;;;;;5130832;27;20109;-75
2020/12/26 02:36:28;;;;;;;55.58;26.65;;;-1.70;99.90;;;;;;5132952;27;20111;-74
2020/12/26 02:38:54;;;;;;;62.40;26.63;;;-1.80;99.90;;;;;;5111890;27;20043;-73
2020/12/26 02:41:20;;;;;;;68.72;26.42;;;-1.90;99.90;;;;;;5126984;27;20122;-74
2020/12/26 02:43:47;;;;;;;70.50;27.20;;;-1.90;99.90;;;;;;5117482;27;20405;-74
2020/12/26 02:46:13;;;;;;;75.72;28.25;;;-1.90;99.90;;;;;;5105198;28;20142;-73
2020/12/26 02:48:39;;;;;;;77.50;29.13;;;-1.90;99.90;;;;;;5108058;27;20494;-74
2020/12/26 02:51:06;;;;;;;73.50;29.23;;;-1.80;99.90;;;;;;5091822;28;20424;-73
2020/12/26 02:53:33;;;;;;;78.93;28.42;;;-1.70;99.90;;;;;;5099147;28;20065;-74
2020/12/26 02:55:59;;;;;;;78.10;28.98;;;-1.60;99.90;;;;;;5110756;28;20075;-73
2020/12/26 02:58:25;;;;;;;93.43;31.75;;;-1.50;99.90;;;;;;5112396;27;20071;-73
2020/12/26 03:00:52;;;;;;;81.07;30.92;;;-1.40;99.90;;;;;;5104928;28;20551;-74
2020/12/26 03:03:18;;;;;;;77.93;29.98;;;-1.30;99.90;;;;;;5097279;28;20176;-74
2020/12/26 03:05:44;;;;;;;76.13;28.90;;;-1.20;99.90;;;;;;5111829;28;20108;-75
2020/12/26 03:08:10;;;;;;;79.93;29.48;;;-1.20;99.90;;;;;;5111749;28;20078;-74
2020/12/26 03:10:37;;;;;;;80.53;28.65;;;-1.10;99.90;;;;;;5105164;28;20036;-74
2020/12/26 03:13:03;;;;;;;74.20;29.00;;;-1.10;99.90;;;;;;5102203;28;20184;-74
2020/12/26 03:15:30;;;;;;;67.68;28.17;;;-1.10;99.90;;;;;;5111100;28;20055;-74
2020/12/26 03:17:56;;;;;;;72.28;28.05;;;-1.10;99.90;;;;;;5111826;28;20047;-73
2020/12/26 03:20:23;;;;;;;68.88;29.23;;;-1.10;99.90;;;;;;5097057;28;20063;-74
2020/12/26 03:22:50;;;;;;;71.45;28.63;;;-1.10;99.90;;;;;;5111528;28;20040;-74
2020/12/26 03:25:17;;;;;;;76.70;28.23;;;-1.10;99.90;;;;;;5111099;28;20054;-74
2020/12/26 03:27:43;;;;;;;73.47;30.88;;;-1.10;99.90;;;;;;5110619;28;20071;-73
2020/12/26 03:30:10;;;;;;;66.80;28.33;;;-1.10;99.90;;;;;;5110136;28;20109;-74
2020/12/26 03:32:37;;;;;;;72.35;29.35;;;-1.20;99.90;;;;;;5111348;27;20127;-73
2020/12/26 03:35:05;;;;;;;77.80;28.95;;;-1.20;99.90;;;;;;5100916;28;20497;-73
2020/12/26 03:37:35;;;;;;;67.63;28.98;;;-1.20;99.90;;;;;;5110303;28;20123;-74
2020/12/26 03:40:04;;;;;;;71.32;27.77;;;-1.30;99.90;;;;;;5099941;28;20129;-73
2020/12/26 03:42:31;;;;;;;65.97;26.55;;;-1.40;99.90;;;;;;5108425;28;20119;-73
2020/12/26 03:44:57;;;;;;;76.47;28.45;;;-1.40;99.90;;;;;;5117445;27;20090;-74
2020/12/26 03:47:24;;;;;;;65.53;27.15;;;-1.40;99.90;;;;;;5131443;27;20043;-74
2020/12/26 03:49:50;;;;;;;61.20;26.55;;;-1.50;99.90;;;;;;5128814;27;20075;-73
2020/12/26 03:52:17;;;;;;;61.55;23.88;;;-1.60;99.90;;;;;;5131692;27;20188;-75
2020/12/26 03:54:43;;;;;;;58.65;23.80;;;-1.60;99.90;;;;;;5098216;27;20379;-73
2020/12/26 03:57:11;;;;;;;63.72;24.73;;;-1.70;99.90;;;;;;5131680;27;20134;-73
2020/12/26 03:59:37;;;;;;;69.93;25.67;;;-1.80;99.90;;;;;;5129926;27;20514;-74
2020/12/26 04:02:04;;;;;;;65.85;24.88;;;-1.80;99.90;;;;;;5131347;27;20075;-73
2020/12/26 04:04:31;;;;;;;63.13;25.38;;;-1.90;99.90;;;;;;5130957;27;20082;-74
2020/12/26 04:06:57;;;;;;;63.17;24.65;;;-1.90;99.90;;;;;;5131691;27;20046;-73
2020/12/26 04:09:24;;;;;;;59.75;24.58;;;-2.00;99.90;;;;;;5120899;27;20220;-73
2020/12/26 04:11:50;;;;;;;59.60;23.27;;;-2.10;99.90;;;;;;5130778;27;20081;-73
2020/12/26 04:14:17;;;;;;;58.80;24.05;;;-2.20;99.90;;;;;;5112945;27;20079;-73
2020/12/26 04:16:43;;;;;;;61.42;26.13;;;-2.30;99.90;;;;;;5130596;27;20150;-73
2020/12/26 04:19:09;;;;;;;69.15;25.83;;;-2.30;99.90;;;;;;5122655;27;20410;-73
2020/12/26 04:21:51;;;;;;;63.88;25.95;;;-2.20;99.90;;;;;;5129378;27;20060;-73
2020/12/26 04:24:17;;;;;;;69.82;26.90;;;-2.20;99.90;;;;;;5128969;27;20186;-73
2020/12/26 04:26:44;;;;;;;74.43;26.17;;;-2.20;99.90;;;;;;5123550;27;20058;-73
2020/12/26 04:29:11;;;;;;;63.15;26.25;;;-2.20;99.90;;;;;;5111367;28;20140;-73
2020/12/26 04:31:37;;;;;;;81.03;28.15;;;-2.10;99.90;;;;;;5125657;27;20119;-73
2020/12/26 04:34:03;;;;;;;73.70;26.83;;;-1.90;99.90;;;;;;5130401;27;20071;-73
2020/12/26 04:36:31;;;;;;;69.53;27.58;;;-1.90;99.90;;;;;;5131255;27;20059;-73
2020/12/26 04:38:57;;;;;;;71.43;27.05;;;-1.80;99.90;;;;;;5129635;27;20338;-73
2020/12/26 04:41:24;;;;;;;69.95;27.55;;;-1.80;99.90;;;;;;5129325;27;20043;-73
2020/12/26 04:43:54;;;;;;;67.47;25.90;;;-1.80;99.90;;;;;;5112010;27;20451;-73
2020/12/26 04:46:26;;;;;;;63.80;26.60;;;-1.80;99.90;;;;;;5129838;27;20130;-73
2020/12/26 04:49:20;;;;;;;65.90;26.02;;;-1.80;99.90;;;;;;5128215;27;20049;-73
2020/12/26 04:51:51;;;;;;;69.20;26.30;;;-1.80;99.90;;;;;;5108997;27;20054;-73
2020/12/26 04:54:26;;;;;;;63.33;25.10;;;-1.70;99.90;;;;;;5096718;27;20431;-73
2020/12/26 04:56:54;;;;;;;58.67;25.05;;;-1.70;99.90;;;;;;5129332;27;20039;-73
2020/12/26 04:59:22;;;;;;;67.00;25.88;;;-1.70;99.90;;;;;;5103991;27;20051;-74
2020/12/26 05:01:51;;;;;;;63.40;25.73;;;-1.70;99.90;;;;;;5111087;27;20047;-73
2020/12/26 05:04:18;;;;;;;53.15;23.02;;;-1.70;99.90;;;;;;5111752;27;20405;-74
2020/12/26 05:06:48;;;;;;;60.60;24.60;;;-1.70;99.90;;;;;;5130119;27;20130;-73
2020/12/26 05:09:16;;;;;;;56.95;24.52;;;-1.70;99.90;;;;;;5122344;27;20048;-73
2020/12/26 05:12:09;;;;;;;56.35;24.38;;;-1.70;99.90;;;;;;5128108;27;20469;-74
2020/12/26 05:14:36;;;;;;;69.55;26.85;;;-1.70;99.90;;;;;;5120806;27;20043;-74
2020/12/26 05:17:02;;;;;;;61.70;26.92;;;-1.60;99.90;;;;;;5129811;27;20200;-73
2020/12/26 05:19:29;;;;;;;59.50;25.60;;;-1.60;99.90;;;;;;5119697;27;20537;-73
2020/12/26 05:21:56;;;;;;;58.72;24.23;;;-1.60;99.90;;;;;;5129202;27;20096;-73
2020/12/26 05:24:23;;;;;;;57.20;23.48;;;-1.60;99.90;;;;;;5129019;27;20488;-73
2020/12/26 05:26:52;;;;;;;53.60;23.73;;;-1.70;99.90;;;;;;5129034;27;20043;-73
2020/12/26 05:29:23;;;;;;;54.88;23.88;;;-1.70;99.90;;;;;;5121802;27;20497;-74
2020/12/26 05:31:58;;;;;;;58.95;25.70;;;-1.70;99.90;;;;;;5125885;27;20075;-73
2020/12/26 05:34:45;;;;;;;56.95;24.10;;;-1.70;99.90;;;;;;5129644;27;20051;-73
2020/12/26 05:37:17;;;;;;;61.92;23.85;;;-1.60;99.90;;;;;;5129831;27;20047;-73
2020/12/26 05:39:44;;;;;;;48.50;22.48;;;-1.60;99.90;;;;;;5117243;27;20055;-73
2020/12/26 05:42:18;;;;;;;70.13;25.67;;;-1.60;99.90;;;;;;5126931;27;20104;-74
2020/12/26 05:44:45;;;;;;;59.05;22.63;;;-1.60;99.90;;;;;;5129485;27;20457;-73
2020/12/26 05:47:11;;;;;;;58.20;24.25;;;-1.60;99.90;;;;;;5129997;28;20121;-73
2020/12/26 05:49:39;;;;;;;58.38;24.08;;;-1.60;99.90;;;;;;5128869;27;20043;-74
2020/12/26 05:52:13;;;;;;;56.03;23.42;;;-1.60;99.90;;;;;;5129752;27;20122;-74
2020/12/26 05:54:50;;;;;;;51.58;21.85;;;-1.70;99.90;;;;;;5114289;28;20054;-73
2020/12/26 05:57:18;;;;;;;56.00;24.23;;;-1.70;99.90;;;;;;5129318;28;20055;-73
2020/12/26 05:59:47;;;;;;;47.70;22.25;;;-1.80;99.90;;;;;;5128738;28;20039;-73
2020/12/26 06:02:24;;;;;;;48.80;22.60;;;-1.90;99.90;;;;;;5111069;28;20119;-73
2020/12/26 06:05:01;;;;;;;50.67;21.90;;;-2.00;99.90;;;;;;5129106;27;20043;-73
2020/12/26 06:07:33;;;;;;;49.97;21.20;;;-2.10;99.90;;;;;;5122680;27;20047;-73
2020/12/26 06:10:01;;;;;;;57.33;23.45;;;-2.10;99.90;;;;;;5129383;27;20070;-73
2020/12/26 06:12:29;;;;;;;46.15;23.30;;;-2.10;99.90;;;;;;5123993;27;20146;-73
2020/12/26 06:14:56;;;;;;;55.97;23.75;;;-2.20;99.90;;;;;;5131234;27;20047;-73
2020/12/26 06:17:31;;;;;;;54.38;23.35;;;-2.10;99.90;;;;;;5133366;27;20051;-73
2020/12/26 06:20:06;;;;;;;49.53;21.98;;;-2.20;99.90;;;;;;5123112;27;20043;-73
2020/12/26 06:22:49;;;;;;;67.72;28.13;;;-2.20;99.90;;;;;;5115397;27;20071;-74
2020/12/26 06:25:19;;;;;;;75.43;29.65;;;-2.00;99.90;;;;;;5113935;27;20474;-74
2020/12/26 06:27:58;;;;;;;80.78;28.60;;;-2.00;99.90;;;;;;5128345;27;20080;-73
2020/12/26 06:30:25;;;;;;;80.72;28.00;;;-1.90;99.90;;;;;;5122727;27;20076;-73
2020/12/26 06:32:52;;;;;;;62.67;26.85;;;-1.90;99.90;;;;;;5133683;27;20047;-73
2020/12/26 06:35:19;;;;;;;64.25;26.58;;;-1.80;99.90;;;;;;5132696;27;20134;-73
2020/12/26 06:37:47;;;;;;;63.60;26.10;;;-1.80;99.90;;;;;;5133243;27;20080;-72
2020/12/26 06:40:32;;;;;;;64.47;25.42;;;-1.80;99.90;;;;;;5120750;27;20044;-73
2020/12/26 06:42:58;;;;;;;54.30;24.38;;;-1.90;99.90;;;;;;5125622;27;20121;-73
2020/12/26 06:45:37;;;;;;;59.42;25.35;;;-1.90;99.90;;;;;;5132450;27;21004;-74
2020/12/26 06:48:04;;;;;;;65.68;28.27;;;-1.90;99.90;;;;;;5112460;27;20112;-73
2020/12/26 06:50:32;;;;;;;60.05;25.48;;;-2.00;99.90;;;;;;5116764;27;20056;-73
2020/12/26 06:53:00;;;;;;;63.08;27.02;;;-2.00;99.90;;;;;;5117505;27;20168;-73
2020/12/26 06:55:50;;;;;;;51.15;24.15;;;-2.00;99.90;;;;;;5104844;27;20434;-73
2020/12/26 06:58:22;;;;;;;56.95;25.88;;;-2.10;99.90;;;;;;5123105;27;20047;-73
2020/12/26 07:00:49;;;;;;;56.28;24.75;;;-2.00;99.90;;;;;;5128268;27;20083;-73
2020/12/26 07:03:19;;;;;;;62.00;25.25;;;-1.90;99.90;;;;;;5132430;27;20122;-73
2020/12/26 07:05:48;;;;;;;62.22;25.70;;;-1.90;99.90;;;;;;5132434;27;20115;-72
2020/12/26 07:08:22;;;;;;;60.17;25.73;;;-1.90;99.90;;;;;;5132574;27;20043;-74
2020/12/26 07:10:48;;;;;;;58.88;26.02;;;-1.90;99.90;;;;;;5129864;27;20059;-75
2020/12/26 07:13:47;;;;;;;52.22;25.30;;;-1.90;99.90;;;;;;5132339;27;20061;-75
2020/12/26 07:16:42;;;;;;;61.20;27.10;;;-1.80;99.90;;;;;;5131859;27;20490;-76
2020/12/26 07:19:38;;;;;;;54.88;26.10;;;-1.80;99.90;;;;;;5130497;27;20094;-75
2020/12/26 07:22:16;;;;;;;56.03;26.17;;;-1.80;99.90;;;;;;5117138;27;20148;-74
2020/12/26 07:25:06;;;;;;;58.35;27.30;;;-1.80;99.90;;;;;;5114927;27;20048;-75
2020/12/26 07:27:37;;;;;;;61.97;27.83;;;-1.70;99.90;;;;;;5097544;28;20177;-74
2020/12/26 07:30:11;;;;;;;62.92;28.45;;;-1.60;99.90;;;;;;5119636;27;20051;-74
2020/12/26 07:32:50;;;;;;;59.67;28.63;;;-1.60;99.90;;;;;;5111456;28;20082;-74
2020/12/26 07:35:19;;;;;;;63.30;27.10;;;-1.50;99.90;;;;;;5092722;28;20047;-76
2020/12/26 07:37:55;;;;;;;61.45;27.63;;;-1.50;99.90;;;;;;5093146;28;20123;-72
2020/12/26 07:40:29;;;;;;;66.90;28.05;;;-1.40;99.90;;;;;;5116967;27;20511;-73
2020/12/26 07:42:57;;;;;;;55.72;26.50;;;-1.40;99.90;;;;;;5110805;27;20043;-72
2020/12/26 07:45:24;;;;;;;58.03;27.02;;;-1.40;99.90;;;;;;5095093;27;20064;-73
2020/12/26 07:47:53;;;;;;;56.20;26.73;;;-1.40;99.90;;;;;;5111259;28;20153;-72
2020/12/26 07:50:25;;;;;;;57.28;26.45;;;-1.40;99.90;;;;;;5092508;28;20119;-74
2020/12/26 07:52:56;;;;;;;52.58;25.38;;;-1.30;99.90;;;;;;5093088;28;20048;-72
2020/12/26 07:55:24;;;;;;;50.85;25.88;;;-1.30;99.90;;;;;;5121274;27;20047;-73
2020/12/26 07:58:08;;;;;;;44.58;24.50;;;-1.30;99.90;;;;;;5112257;27;20063;-72
2020/12/26 08:00:39;;;;;;;51.92;26.48;;;-1.20;99.90;;;;;;5122235;27;20059;-73
2020/12/26 08:03:08;;;;;;;51.73;26.83;;;-1.20;99.90;;;;;;5109756;27;20097;-73
2020/12/26 08:05:40;;;;;;;47.58;23.88;;;-1.20;99.90;;;;;;5112557;27;20130;-73
2020/12/26 08:08:27;;;;;;;48.47;24.17;;;-1.10;99.90;;;;;;5113158;27;20134;-71
2020/12/26 08:10:57;;;;;;;43.90;23.45;;;-1.00;99.90;;;;;;5130341;27;20051;-69
2020/12/26 08:13:24;;;;;;;43.42;22.20;;;-0.90;99.90;;;;;;5131646;27;20085;-70
2020/12/26 08:16:01;;;;;;;50.05;23.10;;;-0.90;99.90;;;;;;5130680;27;20059;-70
2020/12/26 08:18:28;;;;;;;44.95;22.48;;;-0.80;99.90;;;;;;5117631;27;20542;-71
2020/12/26 08:20:55;;;;;;;39.10;20.08;;;-0.70;99.90;;;;;;5130475;27;20051;-70
2020/12/26 08:23:22;;;;;;;37.53;21.58;;;-0.60;99.90;;;;;;5131509;27;20070;-71
2020/12/26 08:25:48;;;;;;;39.78;20.08;;;-0.50;99.90;;;;;;5093014;27;20510;-71
2020/12/26 08:28:18;;;;;;;39.92;20.45;;;-0.40;99.90;;;;;;5103319;27;20074;-71
2020/12/26 08:30:51;;;;;;;39.70;21.92;;;-0.40;99.90;;;;;;5102212;28;20125;-72
2020/12/26 08:33:28;;;;;;;39.10;21.48;;;-0.40;99.90;;;;;;5110242;27;20058;-72
2020/12/26 08:36:03;;;;;;;38.15;21.23;;;-0.30;99.90;;;;;;5110277;28;20088;-71
2020/12/26 08:38:43;;;;;;;42.70;20.52;;;-0.10;99.90;;;;;;5093411;27;20133;-71
2020/12/26 08:41:12;;;;;;;33.53;19.42;;;-0.10;99.90;;;;;;5095633;28;20108;-71
2020/12/26 08:43:40;;;;;;;34.63;18.38;;;-0.10;99.90;;;;;;5110226;27;20154;-71
2020/12/26 08:46:15;;;;;;;34.97;18.75;;;-0.20;99.90;;;;;;5087718;28;20048;-71
2020/12/26 08:48:42;;;;;;;37.47;18.92;;;-0.20;99.90;;;;;;5089540;28;20115;-74
2020/12/26 08:51:17;;;;;;;44.10;19.45;;;-0.20;99.90;;;;;;5090870;28;20048;-71
2020/12/26 08:53:45;;;;;;;36.47;19.65;;;-0.10;99.90;;;;;;5099680;28;20144;-72
2020/12/26 08:56:11;;;;;;;36.60;18.63;;;0.00;99.90;;;;;;5107334;28;20043;-72
2020/12/26 08:58:38;;;;;;;29.52;17.50;;;0.10;99.90;;;;;;5109630;28;20097;-71
2020/12/26 09:01:06;;;;;;;31.95;17.88;;;0.30;99.90;;;;;;5109446;28;20093;-71
2020/12/26 09:03:35;;;;;;;42.38;18.77;;;0.40;99.90;;;;;;5109637;28;20097;-72
2020/12/26 09:06:03;;;;;;;27.75;17.00;;;0.50;99.90;;;;;;5094232;28;20505;-72
2020/12/26 09:08:35;;;;;;;24.50;14.45;;;0.70;99.90;;;;;;5089742;28;20036;-73
2020/12/26 09:11:12;;;;;;;26.92;13.68;;;0.90;99.90;;;;;;5090859;28;20447;-73
2020/12/26 09:13:46;;;;;;;20.02;12.88;;;1.20;99.90;;;;;;5102041;28;20163;-73
2020/12/26 09:16:14;;;;;;;20.02;12.60;;;1.40;99.90;;;;;;5100753;27;20481;-73
2020/12/26 09:18:46;;;;;;;18.98;12.40;;;1.30;99.90;;;;;;5097371;28;20044;-73
2020/12/26 09:21:27;;;;;;;18.67;11.95;;;1.40;99.90;;;;;;5088912;28;20036;-73
2020/12/26 09:23:56;;;;;;;16.27;10.77;;;1.50;99.90;;;;;;5093168;28;20044;-73
2020/12/26 09:26:28;;;;;;;20.20;11.23;;;1.50;99.90;;;;;;5086597;28;20044;-72
2020/12/26 09:28:58;;;;;;;19.58;13.05;;;1.70;99.90;;;;;;5088317;28;20044;-72
2020/12/26 09:31:29;;;;;;;16.60;11.25;;;1.80;99.90;;;;;;5102669;28;20040;-73
2020/12/26 09:34:01;;;;;;;17.38;10.02;;;2.10;99.90;;;;;;5093823;28;20044;-71
2020/12/26 09:36:28;;;;;;;14.98;10.25;;;2.30;99.90;;;;;;5097871;28;20077;-73
2020/12/26 09:38:55;;;;;;;14.05;8.82;;;2.60;99.90;;;;;;5092010;28;20484;-71
2020/12/26 09:41:25;;;;;;;15.07;8.90;;;2.90;99.90;;;;;;5087973;28;20125;-73
2020/12/26 09:43:53;;;;;;;12.50;8.15;;;2.70;99.90;;;;;;5087990;28;20044;-71
2020/12/26 09:46:21;;;;;;;14.75;8.82;;;2.60;99.90;;;;;;5103176;28;20444;-72
2020/12/26 09:48:48;;;;;;;16.58;8.02;;;2.70;99.90;;;;;;5110440;28;20104;-72
2020/12/26 09:51:17;;;;;;;12.77;7.90;;;2.60;99.90;;;;;;5108164;28;20086;-72
2020/12/26 09:53:49;;;;;;;13.70;8.38;;;2.80;99.90;;;;;;5112027;27;20096;-71
2020/12/26 09:56:16;;;;;;;11.85;7.35;;;3.10;99.90;;;;;;5107763;28;20104;-72
2020/12/26 09:58:44;;;;;;;11.90;6.78;;;3.60;99.90;;;;;;5090535;28;20037;-73
2020/12/26 10:01:15;;;;;;;12.10;7.20;;;4.10;99.90;;;;;;5093331;28;20044;-73
2020/12/26 10:03:42;;;;;;;11.98;7.30;;;4.50;99.90;;;;;;5108755;28;20084;-74
2020/12/26 10:06:17;;;;;;;10.07;7.53;;;4.80;99.90;;;;;;5091994;28;20051;-73
2020/12/26 10:08:44;;;;;;;12.27;8.00;;;4.40;99.90;;;;;;5092612;28;20124;-73
2020/12/26 10:11:11;;;;;;;13.98;7.82;;;4.50;99.90;;;;;;5090314;28;20101;-73
2020/12/26 10:13:39;;;;;;;13.07;7.93;;;4.40;99.90;;;;;;5109888;28;20054;-72
2020/12/26 10:16:06;;;;;;;11.02;7.70;;;4.60;99.90;;;;;;5110565;27;20082;-73
2020/12/26 10:18:33;;;;;;;10.45;7.28;;;4.80;99.90;;;;;;5090203;28;20149;-72
2020/12/26 10:20:59;;;;;;;10.90;7.03;;;5.20;99.90;;;;;;5092743;28;20039;-73
2020/12/26 10:23:27;;;;;;;11.45;6.78;;;5.10;99.90;;;;;;5108071;28;20132;-73
2020/12/26 10:25:54;;;;;;;10.90;7.47;;;4.60;99.90;;;;;;5107247;28;20132;-72
2020/12/26 10:28:21;;;;;;;13.57;8.27;;;3.90;99.90;;;;;;5095142;28;20047;-72
2020/12/26 10:30:47;;;;;;;11.88;7.78;;;4.00;99.90;;;;;;5103256;28;20047;-72
2020/12/26 10:33:14;;;;;;;14.13;7.50;;;4.00;99.90;;;;;;5108255;28;20073;-74
2020/12/26 10:35:41;;;;;;;15.43;7.90;;;4.10;99.90;;;;;;5113625;27;20554;-72
2020/12/26 10:38:07;;;;;;;13.63;8.63;;;3.90;99.90;;;;;;5094266;28;20071;-72
2020/12/26 10:40:34;;;;;;;13.90;7.95;;;3.70;99.90;;;;;;5107576;28;20051;-73
2020/12/26 10:43:00;;;;;;;14.65;8.18;;;3.60;99.90;;;;;;5108650;28;20079;-72
2020/12/26 10:45:27;;;;;;;13.27;8.52;;;3.50;99.90;;;;;;5088837;28;20047;-73
2020/12/26 10:47:54;;;;;;;14.93;9.13;;;3.40;99.90;;;;;;5089955;28;20052;-71
2020/12/26 10:50:20;;;;;;;13.63;9.00;;;2.90;99.90;;;;;;5108053;28;20110;-74
2020/12/26 10:52:47;;;;;;;15.57;9.40;;;2.70;99.90;;;;;;5109704;28;20054;-72
2020/12/26 10:55:14;;;;;;;14.57;9.93;;;2.40;99.90;;;;;;5109200;28;20104;-72
2020/12/26 10:57:42;;;;;;;13.80;9.30;;;2.60;99.90;;;;;;5112952;27;20043;-72
2020/12/26 11:00:10;;;;;;;18.25;9.55;;;2.90;99.90;;;;;;5099484;28;21304;-72
2020/12/26 11:02:37;;;;;;;15.05;9.55;;;3.00;99.90;;;;;;5110580;27;20043;-72
2020/12/26 11:05:05;;;;;;;13.63;9.25;;;3.10;99.90;;;;;;5092796;27;20050;-72
2020/12/26 11:07:35;;;;;;;11.13;8.45;;;3.30;99.90;;;;;;5101916;27;20455;-73
2020/12/26 11:10:02;;;;;;;15.80;8.77;;;3.80;99.90;;;;;;5111230;27;20532;-73
2020/12/26 11:12:29;;;;;;;11.13;7.82;;;3.90;99.90;;;;;;5092382;28;20097;-73
2020/12/26 11:14:55;;;;;;;11.10;7.53;;;4.80;99.90;;;;;;5093389;28;20379;-73
2020/12/26 11:17:21;;;;;;;14.25;7.90;;;5.00;99.90;;;;;;5111827;27;20047;-73
2020/12/26 11:19:48;;;;;;;12.95;7.95;;;4.70;99.90;;;;;;5114415;27;20067;-74
2020/12/26 11:22:14;;;;;;;11.10;7.72;;;4.10;99.90;;;;;;5095129;28;20082;-73
2020/12/26 11:24:41;;;;;;;12.85;8.40;;;3.90;99.90;;;;;;5110641;27;20486;-74
2020/12/26 11:27:08;;;;;;;16.35;8.43;;;4.00;99.90;;;;;;5110572;27;20043;-73
2020/12/26 11:29:35;;;;;;;16.92;9.10;;;4.00;99.90;;;;;;5101950;28;20120;-72
2020/12/26 11:32:01;;;;;;;14.07;8.52;;;3.70;99.90;;;;;;5091363;28;20454;-73
2020/12/26 11:34:28;;;;;;;14.73;9.25;;;3.40;99.90;;;;;;5093428;27;20075;-73
2020/12/26 11:36:54;;;;;;;16.95;9.23;;;3.60;99.90;;;;;;5091244;28;20126;-72
2020/12/26 11:39:21;;;;;;;15.20;8.52;;;3.70;99.90;;;;;;5113355;27;20047;-73
2020/12/26 11:41:47;;;;;;;13.77;8.65;;;3.70;99.90;;;;;;5115665;27;20427;-72
2020/12/26 11:44:14;;;;;;;15.00;9.85;;;3.70;99.90;;;;;;5095616;27;20093;-72
2020/12/26 11:46:40;;;;;;;13.57;8.32;;;3.50;99.90;;;;;;5118872;27;20411;-73
2020/12/26 11:49:06;;;;;;;12.52;8.70;;;3.70;99.90;;;;;;5108970;27;20063;-71
2020/12/26 11:51:33;;;;;;;16.40;8.45;;;3.70;99.90;;;;;;5114544;27;20075;-72
2020/12/26 11:53:59;;;;;;;12.88;7.97;;;3.80;99.90;;;;;;5110339;27;20055;-73
2020/12/26 11:56:39;;;;;;;17.95;8.77;;;4.00;99.90;;;;;;5112402;27;20055;-72
2020/12/26 11:59:05;;;;;;;13.05;9.40;;;4.30;99.90;;;;;;5116128;27;20059;-73
2020/12/26 12:01:31;;;;;;;14.35;8.63;;;4.20;99.90;;;;;;5114346;27;20035;-72
2020/12/26 12:03:58;;;;;;;13.68;7.75;;;4.70;99.90;;;;;;5100718;27;20139;-72
2020/12/26 12:06:25;;;;;;;10.52;6.85;;;5.40;99.90;;;;;;5096791;28;20126;-74
2020/12/26 12:08:52;;;;;;;11.13;6.60;;;6.60;99.90;;;;;;5099962;27;20043;-71
2020/12/26 12:11:18;;;;;;;10.25;6.50;;;7.80;91.60;;;;;;5121126;27;20039;-72
2020/12/26 12:13:45;;;;;;;8.85;6.40;;;8.80;87.00;;;;;;5098190;27;20042;-73
2020/12/26 12:16:14;;;;;;;14.52;6.25;;;9.70;79.80;;;;;;5099851;27;20074;-73
2020/12/26 12:18:41;;;;;;;10.45;5.78;;;10.60;74.70;;;;;;5117470;27;20071;-72
2020/12/26 12:21:08;;;;;;;11.45;6.75;;;10.30;67.60;;;;;;5097835;27;20119;-72
2020/12/26 12:23:34;;;;;;;10.23;6.70;;;9.20;71.70;;;;;;5115707;27;20427;-72
2020/12/26 12:26:00;;;;;;;10.88;6.75;;;8.50;75.40;;;;;;5117919;27;20118;-72
2020/12/26 12:28:27;;;;;;;10.25;7.03;;;8.30;77.00;;;;;;5117869;27;20066;-74
2020/12/26 12:30:54;;;;;;;11.80;6.82;;;7.00;86.60;;;;;;5119367;27;20172;-72
2020/12/26 12:33:20;;;;;;;14.32;7.63;;;6.50;90.80;;;;;;5093869;27;20040;-73
2020/12/26 12:35:47;;;;;;;13.88;8.50;;;5.70;94.50;;;;;;5100588;27;20103;-72
2020/12/26 12:38:13;;;;;;;12.35;7.00;;;5.60;98.20;;;;;;5120048;27;20180;-72
2020/12/26 12:40:39;;;;;;;17.10;8.18;;;5.30;98.80;;;;;;5118431;27;20066;-72
2020/12/26 12:43:10;;;;;;;12.25;8.02;;;5.30;99.90;;;;;;5123011;27;20047;-72